createdAt,value
2018-06-01T00:00:29.989Z,0.00
2018-06-01T00:01:29.916Z,0.00
2018-06-01T00:02:29.850Z,0.00
2018-06-01T00:03:30.657Z,0.00
2018-06-01T00:04:30.662Z,0.00
2018-06-01T00:05:29.630Z,0.00
2018-06-01T00:06:29.556Z,0.00
2018-06-01T00:07:29.501Z,0.00
2018-06-01T00:08:29.419Z,0.00
2018-06-01T00:09:29.342Z,0.00
2018-06-01T00:10:29.277Z,0.00
2018-06-01T00:11:29.218Z,0.00
2018-06-01T00:12:29.658Z,0.00
2018-06-01T00:13:29.659Z,0.00
2018-06-01T00:14:28.986Z,0.00
2018-06-01T00:15:28.912Z,0.00
2018-06-01T00:16:28.846Z,0.00
2018-06-01T00:17:28.773Z,0.00
2018-06-01T00:18:28.711Z,0.00
2018-06-01T00:19:28.623Z,0.00
2018-06-01T00:20:29.160Z,0.00
2018-06-01T00:21:28.502Z,0.00
2018-06-01T00:22:28.410Z,0.00
2018-06-01T00:23:28.337Z,0.00
2018-06-01T00:24:28.276Z,0.00
2018-06-01T00:25:28.195Z,0.00
2018-06-01T00:26:28.123Z,0.00
2018-06-01T00:27:28.054Z,0.00
2018-06-01T00:28:27.980Z,0.00
2018-06-01T00:29:27.907Z,0.00
2018-06-01T00:30:27.842Z,0.00
2018-06-01T00:31:27.766Z,0.00
2018-06-01T00:32:27.699Z,0.00
2018-06-01T00:33:27.621Z,0.00
2018-06-01T00:34:28.175Z,0.00
2018-06-01T00:35:28.170Z,0.00
2018-06-01T00:36:28.168Z,0.00
2018-06-01T00:37:28.168Z,0.00
2018-06-01T00:38:27.261Z,0.00
2018-06-01T00:39:27.188Z,0.00
2018-06-01T00:40:27.157Z,0.00
2018-06-01T00:41:27.045Z,0.00
2018-06-01T00:42:26.979Z,0.00
2018-06-01T00:43:27.714Z,0.00
2018-06-01T00:44:26.830Z,0.00
2018-06-01T00:45:27.673Z,0.00
2018-06-01T00:46:26.683Z,0.00
2018-06-01T00:47:26.616Z,0.00
2018-06-01T00:48:26.541Z,0.00
2018-06-01T00:49:26.468Z,0.00
2018-06-01T00:50:26.405Z,0.00
2018-06-01T00:51:27.173Z,0.00
2018-06-01T00:52:27.172Z,0.00
2018-06-01T00:53:26.181Z,0.00
2018-06-01T00:54:26.119Z,0.00
2018-06-01T00:55:26.036Z,0.00
2018-06-01T00:56:26.676Z,0.00
2018-06-01T00:57:25.892Z,0.00
2018-06-01T00:58:25.828Z,0.00
2018-06-01T00:59:26.673Z,0.00
2018-06-01T01:00:25.675Z,0.00
2018-06-01T01:01:26.676Z,0.00
2018-06-01T01:02:25.538Z,0.00
2018-06-01T01:03:26.176Z,0.00
2018-06-01T01:04:25.388Z,0.00
2018-06-01T01:05:27.177Z,0.00
2018-06-01T01:06:25.248Z,0.00
2018-06-01T01:07:25.172Z,0.00
2018-06-01T01:08:25.103Z,0.00
2018-06-01T01:09:25.041Z,0.00
2018-06-01T01:10:24.959Z,0.00
2018-06-01T01:11:24.884Z,0.00
2018-06-01T01:12:24.810Z,0.00
2018-06-01T01:13:24.752Z,0.00
2018-06-01T01:14:24.685Z,0.00
2018-06-01T01:15:24.592Z,0.00
2018-06-01T01:16:24.525Z,0.00
2018-06-01T01:17:24.455Z,0.00
2018-06-01T01:18:24.376Z,0.00
2018-06-01T01:19:24.310Z,0.00
2018-06-01T01:20:24.234Z,0.00
2018-06-01T01:21:24.162Z,0.00
2018-06-01T01:22:24.091Z,0.00
2018-06-01T01:23:24.014Z,0.00
2018-06-01T01:24:23.944Z,0.00
2018-06-01T01:25:23.877Z,0.00
2018-06-01T01:26:23.796Z,0.00
2018-06-01T01:27:23.730Z,0.00
2018-06-01T01:28:23.652Z,0.00
2018-06-01T01:29:23.580Z,0.00
2018-06-01T01:30:23.506Z,0.00
2018-06-01T01:31:23.452Z,0.00
2018-06-01T01:32:23.363Z,0.00
2018-06-01T01:33:23.293Z,0.00
2018-06-01T01:34:23.220Z,0.00
2018-06-01T01:35:23.148Z,0.00
2018-06-01T01:36:23.079Z,0.00
2018-06-01T01:37:23.001Z,0.00
2018-06-01T01:38:22.945Z,0.00
2018-06-01T01:39:22.859Z,0.00
2018-06-01T01:40:22.783Z,0.00
2018-06-01T01:41:22.710Z,0.00
2018-06-01T01:42:22.662Z,0.00
2018-06-01T01:43:22.566Z,0.00
2018-06-01T01:44:22.496Z,0.00
2018-06-01T01:45:22.420Z,0.00
2018-06-01T01:46:22.350Z,0.00
2018-06-01T01:47:22.275Z,0.00
2018-06-01T01:48:22.213Z,0.00
2018-06-01T01:49:22.160Z,0.00
2018-06-01T01:50:22.060Z,0.00
2018-06-01T01:51:21.987Z,0.00
2018-06-01T01:52:21.922Z,0.00
2018-06-01T01:53:21.839Z,0.00
2018-06-01T01:54:21.781Z,0.00
2018-06-01T01:55:21.696Z,0.00
2018-06-01T01:56:21.621Z,0.00
2018-06-01T01:57:21.561Z,0.00
2018-06-01T01:58:21.481Z,0.00
2018-06-01T01:59:21.406Z,0.00
2018-06-01T02:00:21.345Z,0.00
2018-06-01T02:01:21.261Z,0.00
2018-06-01T02:02:21.193Z,0.00
2018-06-01T02:03:21.115Z,0.00
2018-06-01T02:04:21.042Z,0.00
2018-06-01T02:05:20.969Z,0.00
2018-06-01T02:06:20.909Z,0.00
2018-06-01T02:07:20.826Z,0.00
2018-06-01T02:08:20.766Z,0.00
2018-06-01T02:09:20.683Z,0.00
2018-06-01T02:10:20.609Z,0.00
2018-06-01T02:11:20.533Z,0.00
2018-06-01T02:12:20.466Z,0.00
2018-06-01T02:13:20.387Z,0.00
2018-06-01T02:14:20.314Z,0.00
2018-06-01T02:15:20.243Z,0.00
2018-06-01T02:16:20.177Z,0.00
2018-06-01T02:17:20.102Z,0.00
2018-06-01T02:18:20.024Z,0.00
2018-06-01T02:19:19.962Z,0.00
2018-06-01T02:20:19.896Z,0.00
2018-06-01T02:21:19.805Z,0.00
2018-06-01T02:22:19.733Z,0.00
2018-06-01T02:23:19.675Z,0.00
2018-06-01T02:24:19.595Z,0.00
2018-06-01T02:25:19.515Z,0.00
2018-06-01T02:26:19.442Z,0.00
2018-06-01T02:27:19.381Z,0.00
2018-06-01T02:28:19.302Z,0.00
2018-06-01T02:29:19.229Z,0.00
2018-06-01T02:30:19.153Z,0.00
2018-06-01T02:31:19.078Z,0.00
2018-06-01T02:32:19.015Z,0.00
2018-06-01T02:33:19.003Z,0.00
2018-06-01T02:34:18.875Z,0.00
2018-06-01T02:35:18.799Z,0.00
2018-06-01T02:36:18.714Z,0.00
2018-06-01T02:37:18.640Z,0.00
2018-06-01T02:38:18.573Z,0.00
2018-06-01T02:39:18.498Z,0.00
2018-06-01T02:40:18.425Z,0.00
2018-06-01T02:41:18.374Z,0.00
2018-06-01T02:42:18.283Z,0.00
2018-06-01T02:43:18.208Z,0.00
2018-06-01T02:44:18.134Z,0.00
2018-06-01T02:45:18.062Z,0.00
2018-06-01T02:46:17.988Z,0.00
2018-06-01T02:47:17.927Z,0.00
2018-06-01T02:48:17.843Z,0.00
2018-06-01T02:49:17.770Z,0.00
2018-06-01T02:50:17.700Z,0.00
2018-06-01T02:51:17.627Z,0.00
2018-06-01T02:52:17.563Z,0.00
2018-06-01T02:53:17.487Z,0.00
2018-06-01T02:54:17.411Z,0.00
2018-06-01T02:55:17.336Z,0.00
2018-06-01T02:56:17.277Z,0.00
2018-06-01T02:57:17.190Z,0.00
2018-06-01T02:58:17.116Z,0.00
2018-06-01T02:59:17.048Z,0.00
2018-06-01T03:00:16.984Z,0.00
2018-06-01T03:01:16.896Z,0.00
2018-06-01T03:02:16.838Z,0.00
2018-06-01T03:03:16.754Z,0.00
2018-06-01T03:04:16.681Z,0.00
2018-06-01T03:05:16.617Z,0.00
2018-06-01T03:06:16.534Z,0.00
2018-06-01T03:07:16.465Z,0.00
2018-06-01T03:08:16.401Z,0.00
2018-06-01T03:09:16.320Z,0.00
2018-06-01T03:10:16.248Z,0.00
2018-06-01T03:11:16.195Z,0.00
2018-06-01T03:12:16.108Z,0.00
2018-06-01T03:13:16.025Z,0.00
2018-06-01T03:14:15.953Z,0.00
2018-06-01T03:15:15.883Z,0.00
2018-06-01T03:16:15.810Z,0.00
2018-06-01T03:17:15.742Z,0.00
2018-06-01T03:18:15.663Z,0.00
2018-06-01T03:19:15.591Z,0.00
2018-06-01T03:20:15.519Z,0.00
2018-06-01T03:21:15.444Z,0.00
2018-06-01T03:22:15.378Z,0.00
2018-06-01T03:23:15.310Z,0.00
2018-06-01T03:24:15.230Z,0.00
2018-06-01T03:25:15.154Z,0.00
2018-06-01T03:26:15.142Z,0.00
2018-06-01T03:27:15.014Z,0.00
2018-06-01T03:28:14.939Z,0.00
2018-06-01T03:29:14.868Z,0.00
2018-06-01T03:30:14.800Z,0.00
2018-06-01T03:31:14.770Z,0.00
2018-06-01T03:32:14.651Z,0.00
2018-06-01T03:33:14.574Z,0.00
2018-06-01T03:34:14.506Z,0.00
2018-06-01T03:35:14.431Z,5.63
2018-06-01T03:36:14.369Z,5.63
2018-06-01T03:37:14.285Z,5.63
2018-06-01T03:38:14.217Z,5.63
2018-06-01T03:39:14.141Z,5.63
2018-06-01T03:40:14.073Z,5.63
2018-06-01T03:41:13.995Z,5.63
2018-06-01T03:42:13.927Z,5.63
2018-06-01T03:43:13.850Z,5.63
2018-06-01T03:44:13.784Z,5.63
2018-06-01T03:45:13.707Z,5.63
2018-06-01T03:46:13.639Z,11.25
2018-06-01T03:47:13.563Z,11.25
2018-06-01T03:48:13.489Z,11.25
2018-06-01T03:49:13.430Z,11.25
2018-06-01T03:50:13.346Z,11.25
2018-06-01T03:51:13.272Z,16.88
2018-06-01T03:52:13.202Z,16.88
2018-06-01T03:53:13.130Z,16.88
2018-06-01T03:54:13.068Z,16.88
2018-06-01T03:55:12.988Z,11.25
2018-06-01T03:56:12.912Z,11.25
2018-06-01T03:57:12.838Z,11.25
2018-06-01T03:58:12.768Z,11.25
2018-06-01T03:59:12.696Z,16.88
2018-06-01T04:00:12.628Z,16.88
2018-06-01T04:01:12.550Z,16.88
2018-06-01T04:02:12.481Z,16.88
2018-06-01T04:03:12.406Z,16.88
2018-06-01T04:04:12.334Z,16.88
2018-06-01T04:05:12.259Z,16.88
2018-06-01T04:06:12.195Z,22.50
2018-06-01T04:07:12.116Z,22.50
2018-06-01T04:08:12.042Z,28.13
2018-06-01T04:09:11.971Z,28.13
2018-06-01T04:10:11.898Z,28.13
2018-06-01T04:11:11.825Z,33.75
2018-06-01T04:12:11.761Z,33.75
2018-06-01T04:13:11.680Z,33.75
2018-06-01T04:14:11.610Z,33.75
2018-06-01T04:15:11.539Z,33.75
2018-06-01T04:16:11.470Z,39.38
2018-06-01T04:17:11.394Z,39.38
2018-06-01T04:18:11.327Z,39.38
2018-06-01T04:19:11.246Z,39.38
2018-06-01T04:20:11.174Z,45.00
2018-06-01T04:21:11.100Z,45.00
2018-06-01T04:22:11.034Z,45.00
2018-06-01T04:23:10.956Z,45.00
2018-06-01T04:24:10.890Z,50.63
2018-06-01T04:25:10.813Z,50.63
2018-06-01T04:26:10.739Z,50.63
2018-06-01T04:27:10.667Z,50.63
2018-06-01T04:28:10.598Z,50.63
2018-06-01T04:29:10.541Z,50.63
2018-06-01T04:30:10.462Z,50.63
2018-06-01T04:31:10.377Z,50.63
2018-06-01T04:32:10.306Z,50.63
2018-06-01T04:33:10.231Z,50.63
2018-06-01T04:34:10.161Z,50.63
2018-06-01T04:35:10.095Z,50.63
2018-06-01T04:36:10.035Z,50.63
2018-06-01T04:37:09.947Z,50.63
2018-06-01T04:38:09.874Z,50.63
2018-06-01T04:39:09.802Z,50.63
2018-06-01T04:40:09.725Z,50.63
2018-06-01T04:41:09.654Z,50.63
2018-06-01T04:42:09.591Z,56.25
2018-06-01T04:43:09.624Z,56.25
2018-06-01T04:44:09.438Z,56.25
2018-06-01T04:45:09.366Z,56.25
2018-06-01T04:46:09.295Z,56.25
2018-06-01T04:47:09.234Z,61.88
2018-06-01T04:48:09.147Z,61.88
2018-06-01T04:49:09.081Z,61.88
2018-06-01T04:50:09.007Z,61.88
2018-06-01T04:51:08.932Z,61.88
2018-06-01T04:52:08.864Z,61.88
2018-06-01T04:53:08.792Z,61.88
2018-06-01T04:54:08.715Z,67.50
2018-06-01T04:55:08.642Z,67.50
2018-06-01T04:56:08.580Z,73.13
2018-06-01T04:57:08.496Z,78.75
2018-06-01T04:58:08.424Z,78.75
2018-06-01T04:59:08.356Z,73.13
2018-06-01T05:00:08.281Z,73.13
2018-06-01T05:01:08.207Z,67.50
2018-06-01T05:02:08.133Z,67.50
2018-06-01T05:03:08.072Z,67.50
2018-06-01T05:04:07.995Z,73.13
2018-06-01T05:05:07.929Z,67.50
2018-06-01T05:06:07.848Z,67.50
2018-06-01T05:07:07.776Z,61.88
2018-06-01T05:08:07.702Z,61.88
2018-06-01T05:09:07.632Z,61.88
2018-06-01T05:10:07.556Z,56.25
2018-06-01T05:11:07.493Z,56.25
2018-06-01T05:12:07.414Z,61.88
2018-06-01T05:13:07.341Z,61.88
2018-06-01T05:14:07.268Z,61.88
2018-06-01T05:15:07.195Z,61.88
2018-06-01T05:16:07.126Z,67.50
2018-06-01T05:17:07.059Z,67.50
2018-06-01T05:18:06.981Z,67.50
2018-06-01T05:19:06.907Z,73.13
2018-06-01T05:20:06.834Z,78.75
2018-06-01T05:21:06.759Z,78.75
2018-06-01T05:22:06.688Z,84.38
2018-06-01T05:23:06.625Z,90.00
2018-06-01T05:24:06.546Z,95.63
2018-06-01T05:25:06.469Z,95.63
2018-06-01T05:26:06.402Z,101.25
2018-06-01T05:27:06.329Z,101.25
2018-06-01T05:28:06.256Z,106.88
2018-06-01T05:29:06.185Z,106.88
2018-06-01T05:30:06.108Z,112.50
2018-06-01T05:31:06.039Z,123.75
2018-06-01T05:32:05.963Z,135.00
2018-06-01T05:33:05.898Z,146.25
2018-06-01T05:34:05.821Z,146.25
2018-06-01T05:35:05.801Z,151.88
2018-06-01T05:36:05.679Z,163.13
2018-06-01T05:37:05.601Z,174.38
2018-06-01T05:38:05.527Z,185.63
2018-06-01T05:39:05.455Z,196.88
2018-06-01T05:40:05.384Z,202.50
2018-06-01T05:41:05.321Z,213.75
2018-06-01T05:42:05.239Z,213.75
2018-06-01T05:43:05.165Z,225.00
2018-06-01T05:44:05.096Z,258.75
2018-06-01T05:45:05.024Z,258.75
2018-06-01T05:46:04.948Z,247.50
2018-06-01T05:47:04.884Z,230.63
2018-06-01T05:48:04.808Z,230.63
2018-06-01T05:49:04.730Z,230.63
2018-06-01T05:50:04.660Z,230.63
2018-06-01T05:51:04.590Z,253.13
2018-06-01T05:52:04.519Z,247.50
2018-06-01T05:53:04.449Z,298.13
2018-06-01T05:54:04.372Z,298.13
2018-06-01T05:55:04.304Z,298.13
2018-06-01T05:56:04.233Z,298.13
2018-06-01T05:57:04.157Z,298.13
2018-06-01T05:58:04.089Z,298.13
2018-06-01T05:59:04.011Z,270.00
2018-06-01T06:00:03.946Z,275.63
2018-06-01T06:01:03.869Z,303.75
2018-06-01T06:02:03.795Z,292.50
2018-06-01T06:03:03.724Z,286.88
2018-06-01T06:04:03.650Z,281.25
2018-06-01T06:05:03.580Z,286.88
2018-06-01T06:06:03.512Z,275.63
2018-06-01T06:07:03.439Z,264.38
2018-06-01T06:08:03.367Z,236.25
2018-06-01T06:09:03.293Z,241.88
2018-06-01T06:10:03.219Z,264.38
2018-06-01T06:11:03.147Z,270.00
2018-06-01T06:12:03.086Z,286.88
2018-06-01T06:13:03.012Z,270.00
2018-06-01T06:14:02.933Z,270.00
2018-06-01T06:15:02.866Z,281.25
2018-06-01T06:16:02.791Z,292.50
2018-06-01T06:17:02.716Z,298.13
2018-06-01T06:18:02.651Z,298.13
2018-06-01T06:19:02.577Z,292.50
2018-06-01T06:20:02.513Z,286.88
2018-06-01T06:21:02.432Z,281.25
2018-06-01T06:22:02.387Z,275.63
2018-06-01T06:23:02.291Z,270.00
2018-06-01T06:24:02.221Z,270.00
2018-06-01T06:25:02.142Z,270.00
2018-06-01T06:26:02.076Z,264.38
2018-06-01T06:27:02.002Z,247.50
2018-06-01T06:28:01.933Z,241.88
2018-06-01T06:29:01.858Z,241.88
2018-06-01T06:30:01.789Z,236.25
2018-06-01T06:31:01.715Z,236.25
2018-06-01T06:32:01.638Z,230.63
2018-06-01T06:33:01.574Z,230.63
2018-06-01T06:34:01.496Z,241.88
2018-06-01T06:35:01.432Z,236.25
2018-06-01T06:36:01.358Z,236.25
2018-06-01T06:37:01.281Z,241.88
2018-06-01T06:38:01.243Z,241.88
2018-06-01T06:39:01.140Z,247.50
2018-06-01T06:40:01.069Z,241.88
2018-06-01T06:41:00.999Z,258.75
2018-06-01T06:42:00.941Z,275.63
2018-06-01T06:43:00.849Z,281.25
2018-06-01T06:44:00.780Z,275.63
2018-06-01T06:45:00.711Z,270.00
2018-06-01T06:46:00.633Z,264.38
2018-06-01T06:47:00.567Z,281.25
2018-06-01T06:48:00.498Z,292.50
2018-06-01T06:49:00.426Z,315.00
2018-06-01T06:50:00.345Z,343.13
2018-06-01T06:51:00.278Z,348.75
2018-06-01T06:52:00.206Z,343.13
2018-06-01T06:53:00.137Z,354.38
2018-06-01T06:54:00.069Z,365.63
2018-06-01T06:54:59.995Z,371.25
2018-06-01T06:55:59.923Z,376.88
2018-06-01T06:56:59.847Z,365.63
2018-06-01T06:57:59.776Z,354.38
2018-06-01T06:58:59.708Z,376.88
2018-06-01T06:59:59.648Z,360.00
2018-06-01T07:00:59.568Z,376.88
2018-06-01T07:01:59.492Z,382.50
2018-06-01T07:02:59.417Z,376.88
2018-06-01T07:03:59.348Z,382.50
2018-06-01T07:04:59.275Z,371.25
2018-06-01T07:05:59.204Z,309.38
2018-06-01T07:06:59.140Z,303.75
2018-06-01T07:07:59.069Z,286.88
2018-06-01T07:08:58.987Z,331.88
2018-06-01T07:09:58.920Z,286.88
2018-06-01T07:10:58.847Z,275.63
2018-06-01T07:11:58.777Z,275.63
2018-06-01T07:12:58.706Z,298.13
2018-06-01T07:13:58.642Z,298.13
2018-06-01T07:14:58.561Z,348.75
2018-06-01T07:15:58.495Z,343.13
2018-06-01T07:16:58.425Z,331.88
2018-06-01T07:17:58.352Z,365.63
2018-06-01T07:18:58.277Z,371.25
2018-06-01T07:19:58.230Z,343.13
2018-06-01T07:20:58.137Z,331.88
2018-06-01T07:21:58.061Z,348.75
2018-06-01T07:22:57.991Z,348.75
2018-06-01T07:23:57.924Z,303.75
2018-06-01T07:24:57.847Z,309.38
2018-06-01T07:25:57.780Z,309.38
2018-06-01T07:26:57.705Z,303.75
2018-06-01T07:27:57.633Z,326.25
2018-06-01T07:28:57.567Z,348.75
2018-06-01T07:29:57.491Z,382.50
2018-06-01T07:30:57.418Z,354.38
2018-06-01T07:31:57.354Z,348.75
2018-06-01T07:32:57.277Z,360.00
2018-06-01T07:33:57.210Z,360.00
2018-06-01T07:34:57.132Z,326.25
2018-06-01T07:35:57.062Z,326.25
2018-06-01T07:36:56.998Z,320.63
2018-06-01T07:37:56.927Z,309.38
2018-06-01T07:38:56.854Z,309.38
2018-06-01T07:39:56.779Z,298.13
2018-06-01T07:40:56.709Z,275.63
2018-06-01T07:41:56.642Z,270.00
2018-06-01T07:42:56.574Z,286.88
2018-06-01T07:43:56.500Z,309.38
2018-06-01T07:44:56.422Z,326.25
2018-06-01T07:45:56.351Z,354.38
2018-06-01T07:46:56.322Z,365.63
2018-06-01T07:47:56.209Z,388.13
2018-06-01T07:48:56.143Z,393.75
2018-06-01T07:49:56.067Z,399.38
2018-06-01T07:50:55.995Z,410.63
2018-06-01T07:51:55.924Z,421.88
2018-06-01T07:52:55.852Z,433.13
2018-06-01T07:53:55.784Z,427.50
2018-06-01T07:54:55.726Z,438.75
2018-06-01T07:55:55.652Z,427.50
2018-06-01T07:56:55.571Z,433.13
2018-06-01T07:57:55.497Z,433.13
2018-06-01T07:58:55.431Z,421.88
2018-06-01T07:59:55.357Z,410.63
2018-06-01T08:00:55.296Z,410.63
2018-06-01T08:01:55.214Z,416.25
2018-06-01T08:02:55.143Z,427.50
2018-06-01T08:03:55.071Z,416.25
2018-06-01T08:04:54.999Z,399.38
2018-06-01T08:05:54.931Z,371.25
2018-06-01T08:06:54.876Z,354.38
2018-06-01T08:07:54.791Z,331.88
2018-06-01T08:08:54.718Z,315.00
2018-06-01T08:09:54.652Z,309.38
2018-06-01T08:10:54.576Z,298.13
2018-06-01T08:11:54.511Z,270.00
2018-06-01T08:12:54.439Z,247.50
2018-06-01T08:13:54.368Z,213.75
2018-06-01T08:14:54.293Z,191.25
2018-06-01T08:15:54.246Z,191.25
2018-06-01T08:16:54.151Z,202.50
2018-06-01T08:17:54.081Z,236.25
2018-06-01T08:18:54.021Z,270.00
2018-06-01T08:19:53.942Z,298.13
2018-06-01T08:20:53.875Z,315.00
2018-06-01T08:21:53.801Z,320.63
2018-06-01T08:22:53.727Z,320.63
2018-06-01T08:23:53.657Z,309.38
2018-06-01T08:24:53.596Z,298.13
2018-06-01T08:25:53.515Z,281.25
2018-06-01T08:26:53.457Z,270.00
2018-06-01T08:27:53.379Z,270.00
2018-06-01T08:28:53.901Z,281.25
2018-06-01T08:29:53.232Z,315.00
2018-06-01T08:30:53.165Z,337.50
2018-06-01T08:31:53.100Z,337.50
2018-06-01T08:32:53.023Z,331.88
2018-06-01T08:33:52.948Z,371.25
2018-06-01T08:34:52.880Z,405.00
2018-06-01T08:35:52.807Z,427.50
2018-06-01T08:36:52.745Z,433.13
2018-06-01T08:37:52.664Z,427.50
2018-06-01T08:38:52.596Z,421.88
2018-06-01T08:39:52.523Z,410.63
2018-06-01T08:40:52.452Z,405.00
2018-06-01T08:41:52.381Z,416.25
2018-06-01T08:42:52.320Z,433.13
2018-06-01T08:43:52.243Z,433.13
2018-06-01T08:44:52.172Z,416.25
2018-06-01T08:45:52.101Z,399.38
2018-06-01T08:46:52.029Z,410.63
2018-06-01T08:47:51.958Z,427.50
2018-06-01T08:48:51.930Z,405.00
2018-06-01T08:49:51.819Z,421.88
2018-06-01T08:50:51.746Z,455.63
2018-06-01T08:51:51.679Z,478.13
2018-06-01T08:52:51.606Z,478.13
2018-06-01T08:53:51.534Z,472.50
2018-06-01T08:54:51.475Z,450.00
2018-06-01T08:55:51.396Z,421.88
2018-06-01T08:56:51.327Z,438.75
2018-06-01T08:57:51.256Z,466.88
2018-06-01T08:58:51.200Z,466.88
2018-06-01T08:59:51.119Z,450.00
2018-06-01T09:00:51.057Z,427.50
2018-06-01T09:01:50.973Z,427.50
2018-06-01T09:02:50.901Z,438.75
2018-06-01T09:03:50.842Z,438.75
2018-06-01T09:04:50.771Z,421.88
2018-06-01T09:05:50.691Z,405.00
2018-06-01T09:06:50.627Z,365.63
2018-06-01T09:07:50.552Z,348.75
2018-06-01T09:08:50.485Z,337.50
2018-06-01T09:09:50.413Z,326.25
2018-06-01T09:10:50.339Z,303.75
2018-06-01T09:11:50.289Z,292.50
2018-06-01T09:12:50.211Z,292.50
2018-06-01T09:13:50.131Z,281.25
2018-06-01T09:14:50.058Z,286.88
2018-06-01T09:15:49.988Z,309.38
2018-06-01T09:16:49.977Z,326.25
2018-06-01T09:17:49.846Z,343.13
2018-06-01T09:18:49.782Z,360.00
2018-06-01T09:19:49.704Z,365.63
2018-06-01T09:20:49.635Z,354.38
2018-06-01T09:21:49.570Z,320.63
2018-06-01T09:22:49.569Z,292.50
2018-06-01T09:23:49.421Z,275.63
2018-06-01T09:24:49.362Z,253.13
2018-06-01T09:25:49.278Z,230.63
2018-06-01T09:26:49.208Z,225.00
2018-06-01T09:27:49.137Z,219.38
2018-06-01T09:28:49.065Z,219.38
2018-06-01T09:29:48.998Z,225.00
2018-06-01T09:30:48.935Z,236.25
2018-06-01T09:31:48.861Z,241.88
2018-06-01T09:32:48.782Z,247.50
2018-06-01T09:33:48.717Z,247.50
2018-06-01T09:34:48.640Z,253.13
2018-06-01T09:35:48.570Z,264.38
2018-06-01T09:36:48.501Z,286.88
2018-06-01T09:37:48.430Z,315.00
2018-06-01T09:38:48.366Z,348.75
2018-06-01T09:39:48.286Z,376.88
2018-06-01T09:40:48.221Z,405.00
2018-06-01T09:41:48.144Z,421.88
2018-06-01T09:42:48.078Z,433.13
2018-06-01T09:43:48.002Z,438.75
2018-06-01T09:44:47.936Z,427.50
2018-06-01T09:45:47.861Z,421.88
2018-06-01T09:46:47.816Z,433.13
2018-06-01T09:47:47.718Z,450.00
2018-06-01T09:48:47.651Z,444.38
2018-06-01T09:49:47.585Z,433.13
2018-06-01T09:50:47.517Z,427.50
2018-06-01T09:51:47.436Z,427.50
2018-06-01T09:52:47.366Z,450.00
2018-06-01T09:53:47.298Z,472.50
2018-06-01T09:54:47.225Z,495.00
2018-06-01T09:55:47.162Z,528.75
2018-06-01T09:56:47.093Z,551.25
2018-06-01T09:57:47.017Z,573.75
2018-06-01T09:58:46.945Z,601.88
2018-06-01T09:59:46.876Z,635.63
2018-06-01T10:00:46.864Z,663.75
2018-06-01T10:01:46.750Z,663.75
2018-06-01T10:02:46.755Z,663.75
2018-06-01T10:03:46.590Z,675.00
2018-06-01T10:04:46.518Z,669.38
2018-06-01T10:05:46.458Z,652.50
2018-06-01T10:06:46.381Z,613.13
2018-06-01T10:07:46.310Z,568.13
2018-06-01T10:08:46.244Z,551.25
2018-06-01T10:09:46.177Z,540.00
2018-06-01T10:10:46.102Z,534.38
2018-06-01T10:11:46.033Z,534.38
2018-06-01T10:12:46.041Z,523.13
2018-06-01T10:13:45.897Z,528.75
2018-06-01T10:14:45.831Z,551.25
2018-06-01T10:15:45.753Z,562.50
2018-06-01T10:16:45.685Z,573.75
2018-06-01T10:17:45.616Z,573.75
2018-06-01T10:18:45.551Z,562.50
2018-06-01T10:19:45.474Z,562.50
2018-06-01T10:20:45.411Z,562.50
2018-06-01T10:21:45.337Z,562.50
2018-06-01T10:22:45.283Z,573.75
2018-06-01T10:23:45.196Z,596.25
2018-06-01T10:24:45.128Z,585.00
2018-06-01T10:25:45.067Z,573.75
2018-06-01T10:26:45.000Z,568.13
2018-06-01T10:27:44.921Z,573.75
2018-06-01T10:28:44.848Z,562.50
2018-06-01T10:29:44.780Z,556.88
2018-06-01T10:30:44.713Z,545.63
2018-06-01T10:31:44.641Z,534.38
2018-06-01T10:32:44.577Z,523.13
2018-06-01T10:33:44.499Z,523.13
2018-06-01T10:34:44.431Z,528.75
2018-06-01T10:35:44.360Z,534.38
2018-06-01T10:36:44.290Z,500.63
2018-06-01T10:37:44.223Z,410.63
2018-06-01T10:38:44.161Z,376.88
2018-06-01T10:39:44.104Z,376.88
2018-06-01T10:40:44.013Z,382.50
2018-06-01T10:41:43.941Z,393.75
2018-06-01T10:42:43.876Z,416.25
2018-06-01T10:43:43.802Z,433.13
2018-06-01T10:44:43.735Z,461.25
2018-06-01T10:45:43.661Z,517.50
2018-06-01T10:46:43.591Z,545.63
2018-06-01T10:47:43.521Z,517.50
2018-06-01T10:48:43.452Z,483.75
2018-06-01T10:49:43.381Z,478.13
2018-06-01T10:50:43.327Z,483.75
2018-06-01T10:51:43.241Z,427.50
2018-06-01T10:52:43.172Z,388.13
2018-06-01T10:53:43.103Z,376.88
2018-06-01T10:54:43.074Z,405.00
2018-06-01T10:55:42.964Z,444.38
2018-06-01T10:56:42.903Z,483.75
2018-06-01T10:57:42.822Z,506.25
2018-06-01T10:58:42.753Z,517.50
2018-06-01T10:59:42.682Z,523.13
2018-06-01T11:00:42.614Z,528.75
2018-06-01T11:01:42.551Z,545.63
2018-06-01T11:02:42.483Z,568.13
2018-06-01T11:03:42.409Z,562.50
2018-06-01T11:04:42.370Z,556.88
2018-06-01T11:05:42.264Z,540.00
2018-06-01T11:06:42.197Z,506.25
2018-06-01T11:07:42.135Z,478.13
2018-06-01T11:08:42.057Z,461.25
2018-06-01T11:09:41.984Z,466.88
2018-06-01T11:10:41.918Z,489.38
2018-06-01T11:11:41.844Z,534.38
2018-06-01T11:12:41.776Z,579.38
2018-06-01T11:13:41.739Z,641.25
2018-06-01T11:14:41.638Z,720.00
2018-06-01T11:15:41.570Z,753.75
2018-06-01T11:16:41.510Z,770.63
2018-06-01T11:17:41.428Z,793.13
2018-06-01T11:18:41.364Z,770.63
2018-06-01T11:19:41.299Z,714.38
2018-06-01T11:20:41.218Z,703.13
2018-06-01T11:21:41.150Z,736.88
2018-06-01T11:22:41.081Z,736.88
2018-06-01T11:23:41.013Z,753.75
2018-06-01T11:24:40.947Z,742.50
2018-06-01T11:25:40.880Z,658.13
2018-06-01T11:26:40.808Z,596.25
2018-06-01T11:27:40.739Z,590.63
2018-06-01T11:28:40.671Z,607.50
2018-06-01T11:29:40.597Z,635.63
2018-06-01T11:30:40.531Z,675.00
2018-06-01T11:31:40.471Z,736.88
2018-06-01T11:32:40.400Z,804.38
2018-06-01T11:33:40.322Z,821.25
2018-06-01T11:34:40.254Z,770.63
2018-06-01T11:35:40.190Z,748.13
2018-06-01T11:36:40.114Z,748.13
2018-06-01T11:37:40.056Z,748.13
2018-06-01T11:38:39.980Z,748.13
2018-06-01T11:39:39.923Z,725.63
2018-06-01T11:40:39.842Z,731.25
2018-06-01T11:41:39.771Z,708.75
2018-06-01T11:42:39.703Z,641.25
2018-06-01T11:43:39.647Z,736.88
2018-06-01T11:44:39.566Z,736.88
2018-06-01T11:45:39.500Z,798.75
2018-06-01T11:46:39.426Z,871.88
2018-06-01T11:47:39.360Z,742.50
2018-06-01T11:48:39.298Z,877.50
2018-06-01T11:49:39.223Z,871.88
2018-06-01T11:50:39.153Z,855.00
2018-06-01T11:51:39.093Z,748.13
2018-06-01T11:52:39.014Z,798.75
2018-06-01T11:53:38.951Z,686.25
2018-06-01T11:54:38.888Z,691.88
2018-06-01T11:55:38.810Z,686.25
2018-06-01T11:56:38.740Z,635.63
2018-06-01T11:57:38.674Z,675.00
2018-06-01T11:58:38.609Z,742.50
2018-06-01T11:59:38.541Z,849.38
2018-06-01T12:00:38.471Z,849.38
2018-06-01T12:01:38.439Z,956.25
2018-06-01T12:02:38.334Z,990.00
2018-06-01T12:03:38.265Z,978.75
2018-06-01T12:04:38.196Z,978.75
2018-06-01T12:05:38.130Z,1006.88
2018-06-01T12:06:38.065Z,1006.88
2018-06-01T12:07:37.992Z,990.00
2018-06-01T12:08:37.927Z,838.13
2018-06-01T12:09:37.859Z,793.13
2018-06-01T12:10:37.801Z,804.38
2018-06-01T12:11:37.722Z,776.25
2018-06-01T12:12:37.659Z,725.63
2018-06-01T12:13:37.590Z,736.88
2018-06-01T12:14:37.519Z,680.63
2018-06-01T12:15:37.452Z,669.38
2018-06-01T12:16:37.383Z,697.50
2018-06-01T12:17:37.382Z,703.13
2018-06-01T12:18:37.255Z,646.88
2018-06-01T12:19:37.188Z,652.50
2018-06-01T12:20:37.118Z,641.25
2018-06-01T12:21:37.044Z,635.63
2018-06-01T12:22:36.994Z,618.75
2018-06-01T12:23:36.911Z,601.88
2018-06-01T12:24:36.851Z,601.88
2018-06-01T12:25:36.775Z,613.13
2018-06-01T12:26:36.706Z,630.00
2018-06-01T12:27:36.639Z,652.50
2018-06-01T12:28:36.571Z,646.88
2018-06-01T12:29:36.502Z,635.63
2018-06-01T12:30:36.443Z,635.63
2018-06-01T12:31:36.368Z,641.25
2018-06-01T12:32:36.306Z,652.50
2018-06-01T12:33:36.232Z,663.75
2018-06-01T12:34:36.166Z,669.38
2018-06-01T12:35:36.102Z,697.50
2018-06-01T12:36:36.031Z,720.00
2018-06-01T12:37:36.003Z,804.38
2018-06-01T12:38:35.895Z,731.25
2018-06-01T12:39:35.826Z,776.25
2018-06-01T12:40:35.768Z,810.00
2018-06-01T12:41:35.691Z,810.00
2018-06-01T12:42:35.631Z,821.25
2018-06-01T12:43:35.556Z,708.75
2018-06-01T12:44:35.493Z,703.13